sensor_id;sensor_type;location;lat;lon;timestamp;P1;durP1;ratioP1;P2;durP2;ratioP2
14007;SDS011;61651;45.508;12.232;2022-07-01T00:00:45;14.30;;;11.38;;
14007;SDS011;61651;45.508;12.232;2022-07-01T00:03:49;13.40;;;11.13;;
14007;SDS011;61651;45.508;12.232;2022-07-01T00:06:51;15.07;;;11.05;;
14007;SDS011;61651;45.508;12.232;2022-07-01T00:09:53;11.98;;;10.85;;
14007;SDS011;61651;45.508;12.232;2022-07-01T00:12:55;13.75;;;11.02;;
14007;SDS011;61651;45.508;12.232;2022-07-01T00:15:56;14.23;;;11.40;;
14007;SDS011;61651;45.508;12.232;2022-07-01T00:19:00;13.20;;;11.80;;
14007;SDS011;61651;45.508;12.232;2022-07-01T00:22:02;13.00;;;11.70;;
14007;SDS011;61651;45.508;12.232;2022-07-01T00:25:05;12.30;;;10.48;;
14007;SDS011;61651;45.508;12.232;2022-07-01T00:28:07;14.55;;;12.38;;
14007;SDS011;61651;45.508;12.232;2022-07-01T00:31:09;13.88;;;11.73;;
14007;SDS011;61651;45.508;12.232;2022-07-01T00:34:13;15.68;;;12.20;;
14007;SDS011;61651;45.508;12.232;2022-07-01T00:37:15;13.15;;;11.43;;
14007;SDS011;61651;45.508;12.232;2022-07-01T00:40:16;15.57;;;12.45;;
14007;SDS011;61651;45.508;12.232;2022-07-01T00:43:18;16.98;;;12.25;;
14007;SDS011;61651;45.508;12.232;2022-07-01T00:46:23;13.93;;;11.10;;
14007;SDS011;61651;45.508;12.232;2022-07-01T00:49:27;15.50;;;11.27;;
14007;SDS011;61651;45.508;12.232;2022-07-01T00:52:29;13.15;;;11.70;;
14007;SDS011;61651;45.508;12.232;2022-07-01T00:55:32;12.93;;;11.63;;
14007;SDS011;61651;45.508;12.232;2022-07-01T00:58:33;12.43;;;10.93;;
14007;SDS011;61651;45.508;12.232;2022-07-01T01:01:36;13.10;;;11.02;;
14007;SDS011;61651;45.508;12.232;2022-07-01T01:04:39;18.17;;;11.70;;
14007;SDS011;61651;45.508;12.232;2022-07-01T01:07:41;13.88;;;11.70;;
14007;SDS011;61651;45.508;12.232;2022-07-01T01:10:43;13.23;;;10.95;;
14007;SDS011;61651;45.508;12.232;2022-07-01T01:13:45;14.75;;;11.10;;
14007;SDS011;61651;45.508;12.232;2022-07-01T01:16:47;16.15;;;11.50;;
14007;SDS011;61651;45.508;12.232;2022-07-01T01:19:51;19.17;;;12.02;;
14007;SDS011;61651;45.508;12.232;2022-07-01T01:22:55;15.73;;;12.55;;
14007;SDS011;61651;45.508;12.232;2022-07-01T01:25:57;16.65;;;11.70;;
14007;SDS011;61651;45.508;12.232;2022-07-01T01:28:59;15.40;;;11.52;;
14007;SDS011;61651;45.508;12.232;2022-07-01T01:32:01;18.30;;;12.35;;
14007;SDS011;61651;45.508;12.232;2022-07-01T01:35:03;12.77;;;11.45;;
14007;SDS011;61651;45.508;12.232;2022-07-01T01:38:09;14.05;;;11.23;;
14007;SDS011;61651;45.508;12.232;2022-07-01T01:41:10;13.88;;;11.80;;
14007;SDS011;61651;45.508;12.232;2022-07-01T01:44:13;12.93;;;11.68;;
14007;SDS011;61651;45.508;12.232;2022-07-01T01:47:15;16.35;;;12.07;;
14007;SDS011;61651;45.508;12.232;2022-07-01T01:50:17;13.30;;;11.93;;
14007;SDS011;61651;45.508;12.232;2022-07-01T01:53:21;13.75;;;12.25;;
14007;SDS011;61651;45.508;12.232;2022-07-01T01:56:23;13.57;;;12.25;;
14007;SDS011;61651;45.508;12.232;2022-07-01T01:59:25;16.45;;;13.70;;
14007;SDS011;61651;45.508;12.232;2022-07-01T02:02:27;14.68;;;13.20;;
14007;SDS011;61651;45.508;12.232;2022-07-01T02:05:30;15.10;;;12.95;;
14007;SDS011;61651;45.508;12.232;2022-07-01T02:08:33;14.10;;;12.40;;
14007;SDS011;61651;45.508;12.232;2022-07-01T02:11:35;15.85;;;13.63;;
14007;SDS011;61651;45.508;12.232;2022-07-01T02:14:37;16.63;;;12.35;;
14007;SDS011;61651;45.508;12.232;2022-07-01T02:17:39;16.35;;;12.20;;
14007;SDS011;61651;45.508;12.232;2022-07-01T02:20:41;13.18;;;11.82;;
14007;SDS011;61651;45.508;12.232;2022-07-01T02:23:44;13.15;;;11.93;;
14007;SDS011;61651;45.508;12.232;2022-07-01T02:26:46;13.57;;;11.88;;
14007;SDS011;61651;45.508;12.232;2022-07-01T02:29:48;16.80;;;11.75;;
14007;SDS011;61651;45.508;12.232;2022-07-01T02:32:50;16.67;;;12.90;;
14007;SDS011;61651;45.508;12.232;2022-07-01T02:35:52;14.48;;;11.80;;
14007;SDS011;61651;45.508;12.232;2022-07-01T02:38:55;16.23;;;13.40;;
14007;SDS011;61651;45.508;12.232;2022-07-01T02:41:57;15.48;;;12.70;;
14007;SDS011;61651;45.508;12.232;2022-07-01T02:45:16;17.27;;;12.60;;
14007;SDS011;61651;45.508;12.232;2022-07-01T02:48:18;14.10;;;12.20;;
14007;SDS011;61651;45.508;12.232;2022-07-01T02:51:20;14.48;;;12.63;;
14007;SDS011;61651;45.508;12.232;2022-07-01T02:54:23;14.05;;;12.00;;
14007;SDS011;61651;45.508;12.232;2022-07-01T02:57:25;15.23;;;11.77;;
14007;SDS011;61651;45.508;12.232;2022-07-01T03:00:27;15.05;;;12.73;;
14007;SDS011;61651;45.508;12.232;2022-07-01T03:03:29;14.63;;;12.20;;
14007;SDS011;61651;45.508;12.232;2022-07-01T03:06:31;16.83;;;12.73;;
14007;SDS011;61651;45.508;12.232;2022-07-01T03:09:34;16.85;;;12.38;;
14007;SDS011;61651;45.508;12.232;2022-07-01T03:12:39;15.23;;;11.90;;
14007;SDS011;61651;45.508;12.232;2022-07-01T03:15:41;14.30;;;11.68;;
14007;SDS011;61651;45.508;12.232;2022-07-01T03:18:43;13.30;;;12.00;;
14007;SDS011;61651;45.508;12.232;2022-07-01T03:21:45;14.75;;;12.65;;
14007;SDS011;61651;45.508;12.232;2022-07-01T03:24:49;14.13;;;12.73;;
14007;SDS011;61651;45.508;12.232;2022-07-01T03:27:51;14.32;;;13.00;;
14007;SDS011;61651;45.508;12.232;2022-07-01T03:30:53;16.33;;;12.35;;
14007;SDS011;61651;45.508;12.232;2022-07-01T03:33:55;14.48;;;13.18;;
14007;SDS011;61651;45.508;12.232;2022-07-01T03:36:57;15.32;;;13.90;;
14007;SDS011;61651;45.508;12.232;2022-07-01T03:40:00;17.65;;;14.05;;
14007;SDS011;61651;45.508;12.232;2022-07-01T03:43:02;15.93;;;14.40;;
14007;SDS011;61651;45.508;12.232;2022-07-01T03:46:05;16.90;;;14.13;;
14007;SDS011;61651;45.508;12.232;2022-07-01T03:49:07;16.85;;;14.30;;
14007;SDS011;61651;45.508;12.232;2022-07-01T03:52:09;18.58;;;13.77;;
14007;SDS011;61651;45.508;12.232;2022-07-01T03:55:12;16.17;;;14.52;;
14007;SDS011;61651;45.508;12.232;2022-07-01T03:58:13;15.70;;;14.05;;
14007;SDS011;61651;45.508;12.232;2022-07-01T04:01:15;15.05;;;13.55;;
14007;SDS011;61651;45.508;12.232;2022-07-01T04:04:17;16.70;;;14.98;;
14007;SDS011;61651;45.508;12.232;2022-07-01T04:07:19;16.52;;;14.57;;
14007;SDS011;61651;45.508;12.232;2022-07-01T04:10:23;18.67;;;14.65;;
14007;SDS011;61651;45.508;12.232;2022-07-01T04:13:24;15.80;;;13.65;;
14007;SDS011;61651;45.508;12.232;2022-07-01T04:16:27;17.30;;;14.82;;
14007;SDS011;61651;45.508;12.232;2022-07-01T04:19:29;15.82;;;14.10;;
14007;SDS011;61651;45.508;12.232;2022-07-01T04:22:32;16.42;;;14.38;;
14007;SDS011;61651;45.508;12.232;2022-07-01T04:25:34;17.80;;;15.73;;
14007;SDS011;61651;45.508;12.232;2022-07-01T04:28:36;17.75;;;15.57;;
14007;SDS011;61651;45.508;12.232;2022-07-01T04:31:38;16.02;;;14.35;;
14007;SDS011;61651;45.508;12.232;2022-07-01T04:34:40;20.02;;;14.68;;
14007;SDS011;61651;45.508;12.232;2022-07-01T04:37:42;17.58;;;14.57;;
14007;SDS011;61651;45.508;12.232;2022-07-01T04:40:45;17.85;;;14.52;;
14007;SDS011;61651;45.508;12.232;2022-07-01T04:44:01;14.27;;;12.90;;
14007;SDS011;61651;45.508;12.232;2022-07-01T04:47:04;16.58;;;14.88;;
14007;SDS011;61651;45.508;12.232;2022-07-01T04:50:06;16.98;;;14.50;;
14007;SDS011;61651;45.508;12.232;2022-07-01T04:53:08;16.02;;;14.23;;
14007;SDS011;61651;45.508;12.232;2022-07-01T04:56:11;16.15;;;14.43;;
14007;SDS011;61651;45.508;12.232;2022-07-01T04:59:14;18.30;;;14.10;;
14007;SDS011;61651;45.508;12.232;2022-07-01T05:02:16;15.25;;;13.65;;
14007;SDS011;61651;45.508;12.232;2022-07-01T05:05:18;16.48;;;12.88;;
14007;SDS011;61651;45.508;12.232;2022-07-01T05:08:20;20.30;;;13.93;;
14007;SDS011;61651;45.508;12.232;2022-07-01T05:11:24;15.52;;;13.65;;
14007;SDS011;61651;45.508;12.232;2022-07-01T05:14:27;17.00;;;14.32;;
14007;SDS011;61651;45.508;12.232;2022-07-01T05:17:42;14.48;;;12.80;;
14007;SDS011;61651;45.508;12.232;2022-07-01T05:21:02;17.52;;;13.02;;
14007;SDS011;61651;45.508;12.232;2022-07-01T05:24:21;16.17;;;12.68;;
14007;SDS011;61651;45.508;12.232;2022-07-01T05:27:25;15.40;;;13.65;;
14007;SDS011;61651;45.508;12.232;2022-07-01T05:30:27;18.08;;;13.55;;
14007;SDS011;61651;45.508;12.232;2022-07-01T05:33:29;12.95;;;11.50;;
14007;SDS011;61651;45.508;12.232;2022-07-01T05:36:31;17.00;;;11.55;;
14007;SDS011;61651;45.508;12.232;2022-07-01T05:39:33;12.70;;;11.38;;
14007;SDS011;61651;45.508;12.232;2022-07-01T05:42:36;12.40;;;10.80;;
14007;SDS011;61651;45.508;12.232;2022-07-01T05:45:38;13.05;;;10.07;;
14007;SDS011;61651;45.508;12.232;2022-07-01T05:48:41;10.38;;;9.38;;
14007;SDS011;61651;45.508;12.232;2022-07-01T05:51:43;11.32;;;9.43;;
14007;SDS011;61651;45.508;12.232;2022-07-01T05:54:44;11.85;;;8.35;;
14007;SDS011;61651;45.508;12.232;2022-07-01T05:57:50;9.32;;;7.85;;
14007;SDS011;61651;45.508;12.232;2022-07-01T06:00:52;9.65;;;7.95;;
14007;SDS011;61651;45.508;12.232;2022-07-01T06:03:54;10.02;;;7.47;;
14007;SDS011;61651;45.508;12.232;2022-07-01T06:06:56;10.25;;;8.23;;
14007;SDS011;61651;45.508;12.232;2022-07-01T06:09:58;9.20;;;7.45;;
14007;SDS011;61651;45.508;12.232;2022-07-01T06:13:02;9.40;;;6.57;;
14007;SDS011;61651;45.508;12.232;2022-07-01T06:16:04;9.27;;;7.30;;
14007;SDS011;61651;45.508;12.232;2022-07-01T06:19:06;10.13;;;7.00;;
14007;SDS011;61651;45.508;12.232;2022-07-01T06:22:08;9.15;;;6.90;;
14007;SDS011;61651;45.508;12.232;2022-07-01T06:25:10;10.20;;;6.70;;
14007;SDS011;61651;45.508;12.232;2022-07-01T06:28:13;9.43;;;5.70;;
14007;SDS011;61651;45.508;12.232;2022-07-01T06:31:15;7.55;;;5.78;;
14007;SDS011;61651;45.508;12.232;2022-07-01T06:34:17;10.52;;;5.75;;
14007;SDS011;61651;45.508;12.232;2022-07-01T06:37:20;8.63;;;5.50;;
14007;SDS011;61651;45.508;12.232;2022-07-01T06:40:22;5.40;;;4.53;;
14007;SDS011;61651;45.508;12.232;2022-07-01T06:43:25;7.95;;;5.20;;
14007;SDS011;61651;45.508;12.232;2022-07-01T06:46:28;6.70;;;5.35;;
14007;SDS011;61651;45.508;12.232;2022-07-01T06:49:30;7.80;;;5.18;;
14007;SDS011;61651;45.508;12.232;2022-07-01T06:52:32;8.02;;;5.43;;
14007;SDS011;61651;45.508;12.232;2022-07-01T06:55:34;7.20;;;4.45;;
14007;SDS011;61651;45.508;12.232;2022-07-01T06:58:38;8.45;;;4.03;;
14007;SDS011;61651;45.508;12.232;2022-07-01T07:01:40;5.70;;;3.50;;
14007;SDS011;61651;45.508;12.232;2022-07-01T07:04:42;5.30;;;3.28;;
14007;SDS011;61651;45.508;12.232;2022-07-01T07:07:44;4.80;;;2.97;;
14007;SDS011;61651;45.508;12.232;2022-07-01T07:10:46;3.13;;;2.83;;
14007;SDS011;61651;45.508;12.232;2022-07-01T07:13:49;4.97;;;2.95;;
14007;SDS011;61651;45.508;12.232;2022-07-01T07:16:51;5.00;;;2.83;;
14007;SDS011;61651;45.508;12.232;2022-07-01T07:19:54;5.75;;;3.28;;
14007;SDS011;61651;45.508;12.232;2022-07-01T07:22:56;4.75;;;3.40;;
14007;SDS011;61651;45.508;12.232;2022-07-01T07:25:58;5.57;;;3.60;;
14007;SDS011;61651;45.508;12.232;2022-07-01T07:29:01;6.57;;;3.83;;
14007;SDS011;61651;45.508;12.232;2022-07-01T07:32:04;8.05;;;3.83;;
14007;SDS011;61651;45.508;12.232;2022-07-01T07:35:06;5.88;;;3.80;;
14007;SDS011;61651;45.508;12.232;2022-07-01T07:38:09;5.65;;;3.60;;
14007;SDS011;61651;45.508;12.232;2022-07-01T07:41:12;7.20;;;3.78;;
14007;SDS011;61651;45.508;12.232;2022-07-01T07:44:15;5.63;;;3.67;;
14007;SDS011;61651;45.508;12.232;2022-07-01T07:47:17;7.82;;;3.55;;
14007;SDS011;61651;45.508;12.232;2022-07-01T07:50:20;6.22;;;3.03;;
14007;SDS011;61651;45.508;12.232;2022-07-01T07:53:23;7.68;;;3.40;;
14007;SDS011;61651;45.508;12.232;2022-07-01T07:56:25;3.83;;;2.97;;
14007;SDS011;61651;45.508;12.232;2022-07-01T07:59:28;6.90;;;3.30;;
14007;SDS011;61651;45.508;12.232;2022-07-01T08:02:30;6.35;;;3.25;;
14007;SDS011;61651;45.508;12.232;2022-07-01T08:05:32;3.20;;;2.90;;
14007;SDS011;61651;45.508;12.232;2022-07-01T08:08:34;5.97;;;3.05;;
14007;SDS011;61651;45.508;12.232;2022-07-01T08:11:36;6.13;;;3.72;;
14007;SDS011;61651;45.508;12.232;2022-07-01T08:14:41;7.45;;;3.35;;
14007;SDS011;61651;45.508;12.232;2022-07-01T08:17:43;8.60;;;3.20;;
14007;SDS011;61651;45.508;12.232;2022-07-01T08:20:45;4.93;;;3.45;;
14007;SDS011;61651;45.508;12.232;2022-07-01T08:23:47;5.68;;;3.65;;
14007;SDS011;61651;45.508;12.232;2022-07-01T08:26:49;5.95;;;2.92;;
14007;SDS011;61651;45.508;12.232;2022-07-01T08:29:53;5.22;;;3.42;;
14007;SDS011;61651;45.508;12.232;2022-07-01T08:32:55;4.85;;;3.30;;
14007;SDS011;61651;45.508;12.232;2022-07-01T08:35:57;6.35;;;3.33;;
14007;SDS011;61651;45.508;12.232;2022-07-01T08:38:59;5.00;;;3.17;;
14007;SDS011;61651;45.508;12.232;2022-07-01T08:42:01;7.40;;;3.22;;
14007;SDS011;61651;45.508;12.232;2022-07-01T08:45:06;8.35;;;3.95;;
14007;SDS011;61651;45.508;12.232;2022-07-01T08:48:09;7.22;;;3.40;;
14007;SDS011;61651;45.508;12.232;2022-07-01T08:51:11;6.13;;;3.33;;
14007;SDS011;61651;45.508;12.232;2022-07-01T08:54:13;9.98;;;3.13;;
14007;SDS011;61651;45.508;12.232;2022-07-01T08:57:19;5.90;;;3.35;;
14007;SDS011;61651;45.508;12.232;2022-07-01T09:00:28;7.15;;;3.40;;
14007;SDS011;61651;45.508;12.232;2022-07-01T09:03:31;4.97;;;3.30;;
14007;SDS011;61651;45.508;12.232;2022-07-01T09:06:33;5.63;;;3.38;;
14007;SDS011;61651;45.508;12.232;2022-07-01T09:09:35;8.43;;;3.72;;
14007;SDS011;61651;45.508;12.232;2022-07-01T09:12:38;9.80;;;3.63;;
14007;SDS011;61651;45.508;12.232;2022-07-01T09:15:42;5.78;;;2.97;;
14007;SDS011;61651;45.508;12.232;2022-07-01T09:22:04;10.80;;;3.70;;
14007;SDS011;61651;45.508;12.232;2022-07-01T09:25:11;6.18;;;3.35;;
14007;SDS011;61651;45.508;12.232;2022-07-01T09:28:15;5.18;;;3.45;;
14007;SDS011;61651;45.508;12.232;2022-07-01T09:31:20;6.32;;;3.33;;
14007;SDS011;61651;45.508;12.232;2022-07-01T09:34:22;4.38;;;2.75;;
14007;SDS011;61651;45.508;12.232;2022-07-01T09:37:24;8.20;;;3.45;;
14007;SDS011;61651;45.508;12.232;2022-07-01T09:43:48;7.20;;;3.78;;
14007;SDS011;61651;45.508;12.232;2022-07-01T09:46:56;8.35;;;3.70;;
14007;SDS011;61651;45.508;12.232;2022-07-01T09:49:59;4.20;;;3.40;;
14007;SDS011;61651;45.508;12.232;2022-07-01T09:53:02;9.38;;;3.83;;
14007;SDS011;61651;45.508;12.232;2022-07-01T09:56:04;8.32;;;3.42;;
14007;SDS011;61651;45.508;12.232;2022-07-01T09:59:06;5.72;;;3.10;;
14007;SDS011;61651;45.508;12.232;2022-07-01T10:02:10;8.25;;;3.50;;
14007;SDS011;61651;45.508;12.232;2022-07-01T10:05:14;9.60;;;3.40;;
14007;SDS011;61651;45.508;12.232;2022-07-01T10:08:29;7.20;;;3.50;;
14007;SDS011;61651;45.508;12.232;2022-07-01T10:12:03;8.32;;;3.65;;
14007;SDS011;61651;45.508;12.232;2022-07-01T10:15:30;7.47;;;3.67;;
14007;SDS011;61651;45.508;12.232;2022-07-01T10:18:34;7.40;;;3.58;;
14007;SDS011;61651;45.508;12.232;2022-07-01T10:21:36;7.13;;;3.50;;
14007;SDS011;61651;45.508;12.232;2022-07-01T10:24:38;7.35;;;3.97;;
14007;SDS011;61651;45.508;12.232;2022-07-01T10:27:40;12.50;;;4.78;;
14007;SDS011;61651;45.508;12.232;2022-07-01T10:30:50;9.35;;;3.85;;
14007;SDS011;61651;45.508;12.232;2022-07-01T10:34:03;12.18;;;6.43;;
14007;SDS011;61651;45.508;12.232;2022-07-01T10:37:06;8.63;;;3.78;;
14007;SDS011;61651;45.508;12.232;2022-07-01T10:40:09;10.02;;;4.45;;
14007;SDS011;61651;45.508;12.232;2022-07-01T10:43:11;8.98;;;3.97;;
14007;SDS011;61651;45.508;12.232;2022-07-01T10:53:09;9.88;;;4.13;;
14007;SDS011;61651;45.508;12.232;2022-07-01T10:56:15;9.00;;;3.72;;
14007;SDS011;61651;45.508;12.232;2022-07-01T10:59:18;11.43;;;4.40;;
14007;SDS011;61651;45.508;12.232;2022-07-01T11:02:23;9.95;;;4.32;;
14007;SDS011;61651;45.508;12.232;2022-07-01T11:05:28;12.57;;;5.32;;
14007;SDS011;61651;45.508;12.232;2022-07-01T11:08:31;11.75;;;4.95;;
14007;SDS011;61651;45.508;12.232;2022-07-01T11:11:33;9.57;;;4.47;;
14007;SDS011;61651;45.508;12.232;2022-07-01T11:14:35;7.65;;;4.05;;
14007;SDS011;61651;45.508;12.232;2022-07-01T11:17:41;8.65;;;4.53;;
14007;SDS011;61651;45.508;12.232;2022-07-01T11:20:45;8.57;;;4.53;;
14007;SDS011;61651;45.508;12.232;2022-07-01T11:23:52;12.63;;;4.70;;
14007;SDS011;61651;45.508;12.232;2022-07-01T11:26:54;8.57;;;4.57;;
14007;SDS011;61651;45.508;12.232;2022-07-01T11:30:01;9.93;;;5.03;;
14007;SDS011;61651;45.508;12.232;2022-07-01T11:33:05;12.98;;;4.57;;
14007;SDS011;61651;45.508;12.232;2022-07-01T11:36:11;10.88;;;4.35;;
14007;SDS011;61651;45.508;12.232;2022-07-01T11:39:32;11.45;;;4.88;;
14007;SDS011;61651;45.508;12.232;2022-07-01T11:42:36;12.18;;;4.57;;
14007;SDS011;61651;45.508;12.232;2022-07-01T11:45:38;13.60;;;6.03;;
14007;SDS011;61651;45.508;12.232;2022-07-01T11:48:43;13.45;;;4.72;;
14007;SDS011;61651;45.508;12.232;2022-07-01T11:51:55;6.15;;;4.28;;
14007;SDS011;61651;45.508;12.232;2022-07-01T11:54:58;6.05;;;4.32;;
14007;SDS011;61651;45.508;12.232;2022-07-01T11:57:59;14.27;;;6.32;;
14007;SDS011;61651;45.508;12.232;2022-07-01T12:01:02;11.52;;;4.90;;
14007;SDS011;61651;45.508;12.232;2022-07-01T12:04:05;9.13;;;4.45;;
14007;SDS011;61651;45.508;12.232;2022-07-01T12:07:09;9.48;;;4.85;;
14007;SDS011;61651;45.508;12.232;2022-07-01T12:10:13;9.02;;;4.90;;
14007;SDS011;61651;45.508;12.232;2022-07-01T12:13:23;15.75;;;5.57;;
14007;SDS011;61651;45.508;12.232;2022-07-01T12:16:25;13.55;;;5.60;;
14007;SDS011;61651;45.508;12.232;2022-07-01T12:19:27;13.93;;;5.10;;
14007;SDS011;61651;45.508;12.232;2022-07-01T12:22:31;12.05;;;5.00;;
14007;SDS011;61651;45.508;12.232;2022-07-01T12:25:33;8.45;;;4.38;;
14007;SDS011;61651;45.508;12.232;2022-07-01T12:28:37;9.02;;;5.10;;
14007;SDS011;61651;45.508;12.232;2022-07-01T12:31:40;11.90;;;5.68;;
14007;SDS011;61651;45.508;12.232;2022-07-01T12:34:42;15.40;;;5.10;;
14007;SDS011;61651;45.508;12.232;2022-07-01T12:37:47;11.25;;;5.43;;
14007;SDS011;61651;45.508;12.232;2022-07-01T12:40:50;13.05;;;5.38;;
14007;SDS011;61651;45.508;12.232;2022-07-01T12:43:53;19.00;;;7.00;;
14007;SDS011;61651;45.508;12.232;2022-07-01T12:46:55;10.48;;;4.72;;
14007;SDS011;61651;45.508;12.232;2022-07-01T12:50:12;9.52;;;4.63;;
14007;SDS011;61651;45.508;12.232;2022-07-01T12:53:22;10.55;;;4.72;;
14007;SDS011;61651;45.508;12.232;2022-07-01T12:56:25;8.63;;;4.68;;
14007;SDS011;61651;45.508;12.232;2022-07-01T12:59:28;7.03;;;4.35;;
14007;SDS011;61651;45.508;12.232;2022-07-01T13:02:30;9.88;;;4.38;;
14007;SDS011;61651;45.508;12.232;2022-07-01T13:05:32;13.23;;;4.82;;
14007;SDS011;61651;45.508;12.232;2022-07-01T13:08:36;8.73;;;4.60;;
14007;SDS011;61651;45.508;12.232;2022-07-01T13:11:38;13.88;;;4.55;;
14007;SDS011;61651;45.508;12.232;2022-07-01T13:14:40;9.60;;;4.38;;
14007;SDS011;61651;45.508;12.232;2022-07-01T13:17:42;11.02;;;4.10;;
14007;SDS011;61651;45.508;12.232;2022-07-01T13:20:45;9.73;;;4.60;;
14007;SDS011;61651;45.508;12.232;2022-07-01T13:23:49;8.77;;;5.03;;
14007;SDS011;61651;45.508;12.232;2022-07-01T13:26:51;13.23;;;5.03;;
14007;SDS011;61651;45.508;12.232;2022-07-01T13:29:52;8.13;;;3.75;;
14007;SDS011;61651;45.508;12.232;2022-07-01T13:32:54;13.25;;;5.80;;
14007;SDS011;61651;45.508;12.232;2022-07-01T13:35:56;10.20;;;4.65;;
14007;SDS011;61651;45.508;12.232;2022-07-01T13:39:00;10.45;;;4.65;;
14007;SDS011;61651;45.508;12.232;2022-07-01T13:42:02;9.43;;;4.18;;
14007;SDS011;61651;45.508;12.232;2022-07-01T13:45:05;8.93;;;4.22;;
14007;SDS011;61651;45.508;12.232;2022-07-01T13:48:07;9.67;;;4.70;;
14007;SDS011;61651;45.508;12.232;2022-07-01T13:51:09;6.72;;;3.55;;
14007;SDS011;61651;45.508;12.232;2022-07-01T13:54:13;7.20;;;3.75;;
14007;SDS011;61651;45.508;12.232;2022-07-01T13:57:15;11.05;;;4.25;;
14007;SDS011;61651;45.508;12.232;2022-07-01T14:00:17;11.70;;;4.00;;
14007;SDS011;61651;45.508;12.232;2022-07-01T14:03:19;12.50;;;4.20;;
14007;SDS011;61651;45.508;12.232;2022-07-01T14:06:21;5.25;;;3.60;;
14007;SDS011;61651;45.508;12.232;2022-07-01T14:09:24;8.55;;;3.65;;
14007;SDS011;61651;45.508;12.232;2022-07-01T14:12:26;9.80;;;3.80;;
14007;SDS011;61651;45.508;12.232;2022-07-01T14:15:28;4.43;;;3.13;;
14007;SDS011;61651;45.508;12.232;2022-07-01T14:18:30;5.13;;;3.13;;
14007;SDS011;61651;45.508;12.232;2022-07-01T14:21:32;7.78;;;3.15;;
14007;SDS011;61651;45.508;12.232;2022-07-01T14:24:36;7.22;;;3.33;;
14007;SDS011;61651;45.508;12.232;2022-07-01T14:27:38;5.05;;;2.72;;
14007;SDS011;61651;45.508;12.232;2022-07-01T14:30:39;6.35;;;2.92;;
14007;SDS011;61651;45.508;12.232;2022-07-01T14:33:41;4.00;;;2.90;;
14007;SDS011;61651;45.508;12.232;2022-07-01T14:36:45;4.03;;;2.83;;
14007;SDS011;61651;45.508;12.232;2022-07-01T14:39:48;3.28;;;2.30;;
14007;SDS011;61651;45.508;12.232;2022-07-01T14:42:53;3.83;;;2.72;;
14007;SDS011;61651;45.508;12.232;2022-07-01T14:45:55;4.65;;;2.45;;
14007;SDS011;61651;45.508;12.232;2022-07-01T14:48:57;9.32;;;3.42;;
14007;SDS011;61651;45.508;12.232;2022-07-01T14:51:58;4.22;;;2.38;;
14007;SDS011;61651;45.508;12.232;2022-07-01T14:55:02;5.22;;;2.50;;
14007;SDS011;61651;45.508;12.232;2022-07-01T14:58:05;4.60;;;2.33;;
14007;SDS011;61651;45.508;12.232;2022-07-01T15:01:07;3.38;;;2.30;;
14007;SDS011;61651;45.508;12.232;2022-07-01T15:04:10;4.78;;;2.38;;
14007;SDS011;61651;45.508;12.232;2022-07-01T15:07:12;6.28;;;2.85;;
14007;SDS011;61651;45.508;12.232;2022-07-01T15:10:16;10.90;;;3.22;;
14007;SDS011;61651;45.508;12.232;2022-07-01T15:13:18;9.45;;;3.95;;
14007;SDS011;61651;45.508;12.232;2022-07-01T15:16:20;8.82;;;4.00;;
14007;SDS011;61651;45.508;12.232;2022-07-01T15:19:23;13.20;;;4.22;;
14007;SDS011;61651;45.508;12.232;2022-07-01T15:22:25;15.63;;;4.53;;
14007;SDS011;61651;45.508;12.232;2022-07-01T15:25:29;13.02;;;4.60;;
14007;SDS011;61651;45.508;12.232;2022-07-01T15:28:31;11.32;;;4.20;;
14007;SDS011;61651;45.508;12.232;2022-07-01T15:31:33;16.17;;;4.95;;
14007;SDS011;61651;45.508;12.232;2022-07-01T15:34:35;8.02;;;4.45;;
14007;SDS011;61651;45.508;12.232;2022-07-01T15:37:37;5.82;;;3.53;;
14007;SDS011;61651;45.508;12.232;2022-07-01T15:40:40;8.25;;;3.85;;
14007;SDS011;61651;45.508;12.232;2022-07-01T15:43:42;8.70;;;4.32;;
14007;SDS011;61651;45.508;12.232;2022-07-01T15:46:45;6.90;;;4.30;;
14007;SDS011;61651;45.508;12.232;2022-07-01T15:49:47;11.48;;;4.35;;
14007;SDS011;61651;45.508;12.232;2022-07-01T15:52:49;6.20;;;3.97;;
14007;SDS011;61651;45.508;12.232;2022-07-01T15:55:53;6.82;;;4.53;;
14007;SDS011;61651;45.508;12.232;2022-07-01T15:58:55;6.10;;;3.97;;
14007;SDS011;61651;45.508;12.232;2022-07-01T16:01:56;6.78;;;3.90;;
14007;SDS011;61651;45.508;12.232;2022-07-01T16:04:58;7.07;;;4.20;;
14007;SDS011;61651;45.508;12.232;2022-07-01T16:08:01;4.78;;;3.83;;
14007;SDS011;61651;45.508;12.232;2022-07-01T16:11:08;8.68;;;4.63;;
14007;SDS011;61651;45.508;12.232;2022-07-01T16:14:12;7.45;;;4.22;;
14007;SDS011;61651;45.508;12.232;2022-07-01T16:17:18;6.32;;;4.10;;
14007;SDS011;61651;45.508;12.232;2022-07-01T16:20:23;6.38;;;4.45;;
14007;SDS011;61651;45.508;12.232;2022-07-01T16:23:28;4.93;;;4.45;;
14007;SDS011;61651;45.508;12.232;2022-07-01T16:26:34;7.88;;;4.38;;
14007;SDS011;61651;45.508;12.232;2022-07-01T16:29:38;5.15;;;4.57;;
14007;SDS011;61651;45.508;12.232;2022-07-01T16:32:42;7.30;;;4.80;;
14007;SDS011;61651;45.508;12.232;2022-07-01T16:35:45;5.88;;;4.30;;
14007;SDS011;61651;45.508;12.232;2022-07-01T16:38:53;7.80;;;4.40;;
14007;SDS011;61651;45.508;12.232;2022-07-01T16:42:04;6.40;;;4.43;;
14007;SDS011;61651;45.508;12.232;2022-07-01T16:45:10;6.32;;;4.82;;
14007;SDS011;61651;45.508;12.232;2022-07-01T16:48:12;5.53;;;4.45;;
14007;SDS011;61651;45.508;12.232;2022-07-01T16:51:14;7.70;;;4.53;;
14007;SDS011;61651;45.508;12.232;2022-07-01T16:54:18;7.13;;;4.15;;
14007;SDS011;61651;45.508;12.232;2022-07-01T16:57:26;5.95;;;3.85;;
14007;SDS011;61651;45.508;12.232;2022-07-01T17:00:29;6.82;;;4.45;;
14007;SDS011;61651;45.508;12.232;2022-07-01T17:03:31;7.90;;;4.32;;
14007;SDS011;61651;45.508;12.232;2022-07-01T17:06:34;7.72;;;4.50;;
14007;SDS011;61651;45.508;12.232;2022-07-01T17:09:41;6.55;;;4.45;;
14007;SDS011;61651;45.508;12.232;2022-07-01T17:12:50;8.52;;;4.40;;
14007;SDS011;61651;45.508;12.232;2022-07-01T17:15:54;6.30;;;4.32;;
14007;SDS011;61651;45.508;12.232;2022-07-01T17:18:58;9.27;;;4.60;;
14007;SDS011;61651;45.508;12.232;2022-07-01T17:22:00;7.43;;;4.57;;
14007;SDS011;61651;45.508;12.232;2022-07-01T17:25:07;5.82;;;4.30;;
14007;SDS011;61651;45.508;12.232;2022-07-01T17:31:47;9.13;;;4.00;;
14007;SDS011;61651;45.508;12.232;2022-07-01T17:34:52;8.18;;;4.57;;
14007;SDS011;61651;45.508;12.232;2022-07-01T17:37:57;5.97;;;4.60;;
14007;SDS011;61651;45.508;12.232;2022-07-01T17:41:04;5.43;;;4.13;;
14007;SDS011;61651;45.508;12.232;2022-07-01T17:44:12;7.13;;;3.75;;
14007;SDS011;61651;45.508;12.232;2022-07-01T17:47:31;10.23;;;4.22;;
14007;SDS011;61651;45.508;12.232;2022-07-01T17:50:35;9.90;;;4.80;;
14007;SDS011;61651;45.508;12.232;2022-07-01T17:53:39;10.38;;;5.25;;
14007;SDS011;61651;45.508;12.232;2022-07-01T17:56:42;9.73;;;4.85;;
14007;SDS011;61651;45.508;12.232;2022-07-01T17:59:45;7.35;;;5.28;;
14007;SDS011;61651;45.508;12.232;2022-07-01T18:02:49;9.25;;;4.97;;
14007;SDS011;61651;45.508;12.232;2022-07-01T18:05:53;9.10;;;4.70;;
14007;SDS011;61651;45.508;12.232;2022-07-01T18:08:56;7.03;;;4.95;;
14007;SDS011;61651;45.508;12.232;2022-07-01T18:12:02;5.28;;;4.45;;